createdAt,value
2024-04-25T00:02:00.366Z,100.00
2024-04-25T00:04:33.708Z,100.00
2024-04-25T00:07:04.210Z,100.00
2024-04-25T00:09:34.716Z,100.00
2024-04-25T00:12:08.451Z,100.00
2024-04-25T00:14:39.032Z,100.00
2024-04-25T00:17:09.611Z,100.00
2024-04-25T00:19:40.255Z,100.00
2024-04-25T00:22:10.812Z,100.00
2024-04-25T00:24:41.204Z,100.00
2024-04-25T00:27:14.753Z,100.00
2024-04-25T00:29:45.144Z,100.00
2024-04-25T00:32:15.729Z,100.00
2024-04-25T00:34:46.170Z,100.00
2024-04-25T00:37:16.782Z,100.00
2024-04-25T00:39:47.307Z,100.00
2024-04-25T00:42:24.387Z,100.00
2024-04-25T00:44:56.429Z,100.00
2024-04-25T00:47:27.889Z,100.00
2024-04-25T00:49:59.372Z,100.00
2024-04-25T00:52:30.371Z,100.00
2024-04-25T00:55:01.307Z,100.00
2024-04-25T00:57:37.490Z,100.00
2024-04-25T01:00:09.890Z,100.00
2024-04-25T01:02:41.885Z,100.00
2024-04-25T01:05:12.652Z,100.00
2024-04-25T01:07:43.082Z,100.00
2024-04-25T01:10:13.578Z,100.00
2024-04-25T01:12:47.002Z,100.00
2024-04-25T01:15:17.541Z,100.00
2024-04-25T01:17:48.117Z,100.00
2024-04-25T01:20:18.811Z,100.00
2024-04-25T01:22:50.766Z,100.00
2024-04-25T01:25:24.782Z,100.00
2024-04-25T01:27:55.470Z,100.00
2024-04-25T01:30:28.597Z,100.00
2024-04-25T01:33:01.527Z,100.00
2024-04-25T01:35:35.107Z,100.00
2024-04-25T01:38:06.002Z,100.00
2024-04-25T01:40:39.112Z,100.00
2024-04-25T01:43:10.337Z,100.00
2024-04-25T01:45:40.793Z,100.00
2024-04-25T01:48:11.574Z,100.00
2024-04-25T01:50:42.359Z,100.00
2024-04-25T01:53:12.776Z,100.00
2024-04-25T01:55:45.876Z,100.00
2024-04-25T01:58:16.293Z,100.00
2024-04-25T02:00:46.649Z,100.00
2024-04-25T02:03:17.218Z,100.00
2024-04-25T02:05:47.664Z,100.00
2024-04-25T02:08:18.368Z,100.00
2024-04-25T02:10:51.776Z,100.00
2024-04-25T02:13:22.335Z,100.00
2024-04-25T02:15:53.060Z,100.00
2024-04-25T02:18:23.746Z,100.00
2024-04-25T02:21:09.945Z,100.00
2024-04-25T02:23:56.864Z,100.00
2024-04-25T02:26:30.338Z,100.00
2024-04-25T02:29:03.377Z,100.00
2024-04-25T02:31:34.556Z,100.00
2024-04-25T02:34:05.551Z,100.00
2024-04-25T02:36:35.942Z,100.00
2024-04-25T02:39:08.061Z,100.00
2024-04-25T02:41:38.451Z,100.00
2024-04-25T02:44:09.254Z,100.00
2024-04-25T02:46:36.982Z,100.00
2024-04-25T02:49:07.338Z,100.00
2024-04-25T02:51:35.039Z,100.00
2024-04-25T02:54:05.491Z,100.00
2024-04-25T02:56:33.191Z,100.00
2024-04-25T02:59:06.402Z,100.00
2024-04-25T03:01:34.193Z,100.00
2024-04-25T03:04:04.660Z,100.00
2024-04-25T03:06:32.709Z,100.00
2024-04-25T03:09:03.339Z,100.00
2024-04-25T03:11:31.242Z,100.00
2024-04-25T03:14:01.703Z,100.00
2024-04-25T03:16:32.240Z,100.00
2024-04-25T03:19:03.095Z,100.00
2024-04-25T03:21:31.073Z,100.00
2024-04-25T03:24:01.551Z,100.00
2024-04-25T03:26:29.631Z,100.00
2024-04-25T03:29:00.502Z,100.00
2024-04-25T03:31:31.246Z,100.00
2024-04-25T03:34:02.068Z,100.00
2024-04-25T03:36:30.110Z,100.00
2024-04-25T03:39:01.434Z,100.00
2024-04-25T03:41:34.217Z,100.00
2024-04-25T03:44:04.700Z,100.00
2024-04-25T03:46:37.617Z,100.00
2024-04-25T03:49:09.873Z,100.00
2024-04-25T03:51:40.443Z,100.00
2024-04-25T03:54:11.832Z,100.00
2024-04-25T03:56:42.620Z,100.00
2024-04-25T03:59:12.908Z,100.00
2024-04-25T04:01:45.873Z,100.00
2024-04-25T04:04:16.855Z,100.00
2024-04-25T04:06:47.512Z,100.00
2024-04-25T04:09:18.284Z,100.00
2024-04-25T04:11:49.368Z,100.00
2024-04-25T04:14:20.264Z,100.00
2024-04-25T04:16:58.751Z,100.00
2024-04-25T04:19:29.645Z,100.00
2024-04-25T04:22:00.387Z,100.00
2024-04-25T04:24:31.489Z,100.00
2024-04-25T04:27:02.291Z,100.00
2024-04-25T04:29:32.923Z,100.00
2024-04-25T04:32:06.134Z,100.00
2024-04-25T04:34:36.536Z,100.00
2024-04-25T04:37:07.165Z,100.00
2024-04-25T04:39:37.837Z,100.00
2024-04-25T04:42:08.345Z,100.00
2024-04-25T04:44:39.320Z,100.00
2024-04-25T04:47:12.767Z,100.00
2024-04-25T04:49:42.992Z,100.00
2024-04-25T04:52:13.704Z,100.00
2024-04-25T04:54:44.294Z,100.00
2024-04-25T04:57:15.351Z,100.00
2024-04-25T04:59:45.679Z,100.00
2024-04-25T05:02:19.188Z,100.00
2024-04-25T05:04:49.804Z,100.00
2024-04-25T05:07:20.531Z,100.00
2024-04-25T05:09:51.305Z,100.00
2024-04-25T05:12:21.968Z,100.00
2024-04-25T05:14:52.687Z,100.00
2024-04-25T05:17:26.358Z,100.00
2024-04-25T05:19:57.567Z,100.00
2024-04-25T05:22:28.387Z,100.00
2024-04-25T05:24:59.270Z,100.00
2024-04-25T05:27:30.494Z,100.00
2024-04-25T05:30:01.133Z,100.00
2024-04-25T05:32:34.334Z,100.00
2024-04-25T05:35:05.598Z,100.00
2024-04-25T05:37:37.273Z,100.00
2024-04-25T05:40:08.849Z,100.00
2024-04-25T05:42:39.352Z,100.00
2024-04-25T05:45:10.600Z,100.00
2024-04-25T05:47:43.927Z,100.00
2024-04-25T05:50:14.493Z,100.00
2024-04-25T05:52:45.223Z,100.00
2024-04-25T05:55:16.563Z,100.00
2024-04-25T05:57:46.947Z,100.00
2024-04-25T06:00:17.491Z,100.00
2024-04-25T06:02:50.871Z,100.00
2024-04-25T06:05:21.444Z,100.00
2024-04-25T06:07:51.779Z,100.00
2024-04-25T06:10:23.437Z,100.00
2024-04-25T06:12:54.066Z,100.00
2024-04-25T06:15:24.305Z,100.00
2024-04-25T06:17:57.931Z,100.00
2024-04-25T06:20:28.422Z,100.00
2024-04-25T06:22:58.770Z,100.00
2024-04-25T06:25:29.017Z,100.00
2024-04-25T06:27:59.329Z,100.00
2024-04-25T06:30:29.655Z,100.00
2024-04-25T06:33:02.862Z,100.00
2024-04-25T06:35:33.931Z,100.00
2024-04-25T06:38:04.332Z,100.00
2024-04-25T06:40:34.721Z,100.00
2024-04-25T06:43:05.086Z,100.00
2024-04-25T06:45:35.498Z,100.00
2024-04-25T06:48:10.671Z,100.00
2024-04-25T06:50:43.679Z,100.00
2024-04-25T06:53:14.213Z,100.00
2024-04-25T06:55:45.103Z,100.00
2024-04-25T06:58:15.566Z,100.00
2024-04-25T07:00:46.136Z,100.00
2024-04-25T07:03:19.964Z,100.00
2024-04-25T07:05:51.385Z,100.00
2024-04-25T07:08:23.152Z,100.00
2024-04-25T07:10:53.877Z,100.00
2024-04-25T07:13:24.289Z,100.00
2024-04-25T07:15:54.826Z,100.00
2024-04-25T07:18:28.027Z,100.00
2024-04-25T07:20:58.544Z,100.00
2024-04-25T07:23:29.354Z,100.00
2024-04-25T07:25:59.787Z,100.00
2024-04-25T07:28:31.577Z,100.00
2024-04-25T07:31:03.434Z,100.00
2024-04-25T07:33:36.710Z,100.00
2024-04-25T07:36:07.390Z,98.14
2024-04-25T07:38:38.004Z,95.98
2024-04-25T07:41:08.799Z,94.15
2024-04-25T07:43:39.178Z,93.01
2024-04-25T07:46:11.248Z,90.76
2024-04-25T07:48:46.051Z,87.45
2024-04-25T07:51:16.622Z,87.33
2024-04-25T07:53:47.265Z,81.52
2024-04-25T07:56:17.702Z,77.15
2024-04-25T07:58:48.147Z,78.15
2024-04-25T08:01:19.899Z,74.42
2024-04-25T08:03:53.257Z,73.51
2024-04-25T08:06:23.741Z,71.25
2024-04-25T08:08:54.302Z,73.08
2024-04-25T08:11:24.906Z,70.75
2024-04-25T08:13:57.344Z,73.82
2024-04-25T08:16:29.311Z,68.54
2024-04-25T08:19:02.476Z,68.54
2024-04-25T08:21:32.792Z,73.10
2024-04-25T08:24:03.218Z,69.22
2024-04-25T08:26:33.455Z,66.64
2024-04-25T08:29:03.752Z,64.48
2024-04-25T08:31:31.488Z,64.79
2024-04-25T08:34:04.656Z,63.78
2024-04-25T08:36:35.154Z,65.91
2024-04-25T08:39:05.621Z,66.90
2024-04-25T08:41:37.130Z,65.67
2024-04-25T08:44:07.758Z,64.87
2024-04-25T08:46:38.710Z,64.71
2024-04-25T08:49:12.259Z,65.25
2024-04-25T08:51:44.199Z,65.92
2024-04-25T08:54:16.314Z,65.80
2024-04-25T08:56:46.799Z,65.03
2024-04-25T08:59:17.190Z,66.04
2024-04-25T09:01:49.714Z,65.82
2024-04-25T09:04:24.501Z,67.82
2024-04-25T09:06:54.947Z,65.54
2024-04-25T09:09:25.452Z,62.83
2024-04-25T09:11:57.191Z,66.07
2024-04-25T09:14:27.564Z,61.69
2024-04-25T09:16:58.162Z,62.77
2024-04-25T09:19:31.235Z,61.63
2024-04-25T09:22:01.812Z,62.05
2024-04-25T09:24:32.322Z,61.53
2024-04-25T09:27:02.769Z,60.78
2024-04-25T09:29:34.786Z,58.66
2024-04-25T09:32:06.566Z,56.32
2024-04-25T09:34:39.712Z,54.61
2024-04-25T09:37:10.356Z,57.14
2024-04-25T09:39:42.942Z,56.01
2024-04-25T09:42:16.166Z,56.71
2024-04-25T09:44:47.603Z,56.29
2024-04-25T09:47:25.841Z,56.89
2024-04-25T09:50:07.680Z,55.64
2024-04-25T09:52:42.188Z,53.53
2024-04-25T09:55:18.650Z,53.50
2024-04-25T09:57:54.646Z,51.18
2024-04-25T10:00:25.522Z,52.81
2024-04-25T10:02:58.023Z,53.03
2024-04-25T10:05:31.907Z,56.20
2024-04-25T10:08:02.739Z,55.19
2024-04-25T10:10:33.755Z,53.73
2024-04-25T10:13:04.930Z,50.71
2024-04-25T10:15:38.039Z,49.56
2024-04-25T10:18:11.409Z,54.98
2024-04-25T10:20:44.791Z,52.85
2024-04-25T10:23:15.366Z,49.44
2024-04-25T10:25:55.021Z,48.52
2024-04-25T10:28:26.116Z,53.67
2024-04-25T10:30:59.801Z,54.09
2024-04-25T10:33:30.502Z,52.48
2024-04-25T10:36:10.312Z,52.83
2024-04-25T10:38:46.481Z,51.43
2024-04-25T10:41:34.369Z,52.44
2024-04-25T10:44:04.710Z,51.46
2024-04-25T10:46:37.052Z,49.06
2024-04-25T10:49:09.305Z,51.24
2024-04-25T10:51:44.088Z,53.73
2024-04-25T10:54:14.662Z,48.81
2024-04-25T10:56:45.302Z,46.48
2024-04-25T10:59:15.998Z,48.13
2024-04-25T11:01:46.516Z,45.93
2024-04-25T11:04:17.165Z,46.36
2024-04-25T11:06:50.281Z,47.52
2024-04-25T11:09:23.699Z,49.18
2024-04-25T11:11:54.241Z,50.76
2024-04-25T11:14:25.559Z,51.10
2024-04-25T11:16:56.845Z,47.03
2024-04-25T11:22:05.489Z,45.25
2024-04-25T11:24:36.313Z,48.26
2024-04-25T11:27:08.528Z,53.65
2024-04-25T11:29:39.096Z,55.18
2024-04-25T11:32:09.692Z,53.31
2024-04-25T11:34:40.008Z,58.19
2024-04-25T11:37:13.018Z,60.48
2024-04-25T11:39:55.084Z,59.91
2024-04-25T11:42:26.207Z,62.13
2024-04-25T11:44:56.744Z,58.30
2024-04-25T11:47:28.112Z,58.30
2024-04-25T11:49:58.736Z,59.13
2024-04-25T11:52:31.831Z,60.05
2024-04-25T11:55:02.503Z,57.46
2024-04-25T11:57:32.816Z,59.75
2024-04-25T12:00:03.243Z,55.52
2024-04-25T12:02:33.558Z,57.17
2024-04-25T12:05:04.113Z,57.83
2024-04-25T12:07:37.375Z,55.44
2024-04-25T12:10:08.215Z,55.84
2024-04-25T12:12:38.632Z,55.23
2024-04-25T12:15:09.955Z,52.75
2024-04-25T12:17:40.703Z,56.81
2024-04-25T12:20:12.043Z,55.41
2024-04-25T12:22:45.772Z,56.96
2024-04-25T12:25:16.363Z,56.38
2024-04-25T12:27:46.738Z,54.43
2024-04-25T12:30:17.421Z,54.09
2024-04-25T12:32:48.088Z,51.05
2024-04-25T12:35:20.651Z,53.00
2024-04-25T12:37:53.972Z,51.51
2024-04-25T12:40:24.530Z,51.46
2024-04-25T12:42:54.971Z,51.69
2024-04-25T12:45:27.393Z,48.54
2024-04-25T12:47:57.933Z,48.84
2024-04-25T12:50:28.342Z,47.73
2024-04-25T12:53:01.364Z,48.31
2024-04-25T12:55:29.161Z,50.39
2024-04-25T12:57:59.729Z,49.26
2024-04-25T13:00:30.578Z,48.49
2024-04-25T13:03:01.155Z,47.87
2024-04-25T13:05:31.568Z,47.99
2024-04-25T13:08:05.009Z,46.88
2024-04-25T13:10:35.400Z,52.32
2024-04-25T13:13:07.017Z,55.49
2024-04-25T13:15:37.674Z,55.70
2024-04-25T13:18:08.682Z,55.59
2024-04-25T13:20:39.471Z,55.05
2024-04-25T13:23:12.631Z,56.34
2024-04-25T13:25:43.055Z,55.38
2024-04-25T13:28:14.166Z,53.60
2024-04-25T13:30:44.520Z,55.39
2024-04-25T13:33:15.739Z,54.65
2024-04-25T13:35:46.324Z,55.49
2024-04-25T13:38:19.676Z,55.33
2024-04-25T13:40:50.192Z,53.96
2024-04-25T13:43:21.177Z,53.43
2024-04-25T13:45:52.362Z,53.42
2024-04-25T13:48:23.307Z,53.02
2024-04-25T13:50:53.981Z,54.56
2024-04-25T13:53:27.306Z,53.82
2024-04-25T13:55:58.142Z,52.91
2024-04-25T13:58:28.659Z,52.72
2024-04-25T14:00:59.208Z,55.20
2024-04-25T14:03:29.630Z,56.80
2024-04-25T14:06:00.916Z,57.79
2024-04-25T14:08:34.465Z,58.34
2024-04-25T14:11:05.104Z,58.59
2024-04-25T14:13:35.805Z,56.18
2024-04-25T14:16:07.149Z,56.13
2024-04-25T14:18:38.040Z,54.92
2024-04-25T14:21:11.349Z,57.81
2024-04-25T14:23:46.085Z,55.77
2024-04-25T14:26:38.350Z,54.61
2024-04-25T14:29:08.718Z,56.09
2024-04-25T14:31:39.233Z,56.24
2024-04-25T14:34:09.915Z,53.36
2024-04-25T14:36:40.422Z,53.96
2024-04-25T14:39:15.319Z,56.68
2024-04-25T14:41:47.060Z,58.62
2024-04-25T14:44:18.372Z,56.44
2024-04-25T14:46:49.555Z,56.42
2024-04-25T14:49:22.231Z,54.17
2024-04-25T14:51:53.037Z,56.37
2024-04-25T14:54:26.091Z,56.09
2024-04-25T14:56:56.566Z,55.60
2024-04-25T14:59:28.519Z,54.34
2024-04-25T15:01:59.362Z,52.76
2024-04-25T15:04:30.762Z,53.68
2024-04-25T15:07:01.285Z,54.68
2024-04-25T15:09:34.627Z,53.77
2024-04-25T15:12:07.507Z,52.25
2024-04-25T15:14:39.125Z,54.90
2024-04-25T15:17:10.808Z,56.12
2024-04-25T15:19:42.725Z,58.35
2024-04-25T15:22:14.719Z,57.39
2024-04-25T15:24:50.079Z,58.47
2024-04-25T15:27:20.638Z,60.27
2024-04-25T15:29:52.284Z,60.05
2024-04-25T15:32:23.144Z,61.62
2024-04-25T15:34:54.132Z,63.71
2024-04-25T15:37:25.044Z,65.33
2024-04-25T15:39:59.732Z,65.04
2024-04-25T15:42:30.448Z,66.52
2024-04-25T15:45:01.251Z,68.30
2024-04-25T15:47:32.363Z,68.91
2024-04-25T15:50:03.192Z,69.36
2024-04-25T15:52:36.017Z,71.84
2024-04-25T15:55:10.398Z,71.03
2024-04-25T15:57:41.021Z,68.67
2024-04-25T16:00:13.717Z,70.07
2024-04-25T16:02:44.531Z,72.69
2024-04-25T16:05:15.096Z,72.10
2024-04-25T16:07:45.924Z,70.57
2024-04-25T16:10:19.309Z,71.04
2024-04-25T16:12:50.122Z,70.70
2024-04-25T16:15:20.544Z,71.21
2024-04-25T16:17:51.277Z,71.58
2024-04-25T16:20:22.427Z,71.71
2024-04-25T16:22:52.794Z,72.40
2024-04-25T16:25:26.256Z,70.82
2024-04-25T16:27:57.061Z,71.02
2024-04-25T16:30:28.013Z,70.83
2024-04-25T16:32:59.408Z,72.22
2024-04-25T16:35:30.044Z,73.31
2024-04-25T16:38:00.851Z,72.68
2024-04-25T16:40:35.511Z,74.09
2024-04-25T16:43:06.439Z,74.63
2024-04-25T16:45:39.002Z,76.71
2024-04-25T16:48:10.947Z,76.31
2024-04-25T16:50:42.179Z,78.05
2024-04-25T16:53:12.696Z,75.49
2024-04-25T16:55:45.931Z,76.88
2024-04-25T16:58:18.072Z,78.08
2024-04-25T17:00:50.240Z,78.91
2024-04-25T17:03:22.171Z,79.00
2024-04-25T17:05:53.024Z,80.18
2024-04-25T17:08:24.586Z,80.45
2024-04-25T17:10:58.714Z,80.73
2024-04-25T17:13:29.655Z,78.86
2024-04-25T17:16:00.283Z,79.88
2024-04-25T17:18:31.628Z,79.24
2024-04-25T17:21:04.172Z,80.16
2024-04-25T17:23:35.597Z,79.38
2024-04-25T17:26:12.216Z,81.57
2024-04-25T17:28:43.763Z,82.63
2024-04-25T17:31:14.488Z,83.56
2024-04-25T17:33:45.099Z,84.16
2024-04-25T17:36:16.052Z,85.36
2024-04-25T17:38:46.858Z,83.82
2024-04-25T17:41:21.711Z,84.43
2024-04-25T17:43:54.196Z,84.51
2024-04-25T17:46:25.463Z,84.49
2024-04-25T17:48:58.125Z,85.10
2024-04-25T17:51:32.648Z,85.02
2024-04-25T17:54:04.798Z,87.07
2024-04-25T17:56:39.377Z,87.41
2024-04-25T17:59:09.910Z,88.73
2024-04-25T18:01:42.594Z,89.44
2024-04-25T18:04:13.369Z,90.66
2024-04-25T18:06:44.438Z,92.34
2024-04-25T18:09:15.510Z,93.59
2024-04-25T18:11:48.854Z,91.69
2024-04-25T18:14:20.590Z,88.99
2024-04-25T18:16:50.838Z,92.65
2024-04-25T18:19:22.070Z,96.65
2024-04-25T18:21:52.589Z,94.17
2024-04-25T18:24:25.552Z,95.69
2024-04-25T18:26:59.566Z,96.55
2024-04-25T18:29:30.078Z,97.50
2024-04-25T18:32:00.476Z,97.33
2024-04-25T18:34:31.136Z,97.77
2024-04-25T18:37:02.563Z,99.79
2024-04-25T18:39:32.942Z,99.20
2024-04-25T18:42:08.960Z,100.00
2024-04-25T18:44:41.912Z,100.00
2024-04-25T18:47:13.329Z,100.00
2024-04-25T18:49:43.628Z,100.00
2024-04-25T18:52:15.861Z,100.00
2024-04-25T18:54:48.006Z,100.00
2024-04-25T18:57:21.212Z,100.00
2024-04-25T18:59:52.138Z,100.00
2024-04-25T19:02:22.974Z,100.00
2024-04-25T19:04:53.652Z,100.00
2024-04-25T19:07:24.473Z,100.00
2024-04-25T19:09:55.866Z,100.00
2024-04-25T19:12:29.059Z,100.00
2024-04-25T19:14:59.750Z,100.00
2024-04-25T19:17:30.187Z,100.00
2024-04-25T19:20:00.982Z,100.00
2024-04-25T19:22:31.643Z,100.00
2024-04-25T19:25:02.278Z,100.00
2024-04-25T19:27:37.107Z,100.00
2024-04-25T19:30:08.911Z,100.00
2024-04-25T19:32:40.833Z,100.00
2024-04-25T19:35:11.760Z,100.00
2024-04-25T19:37:42.227Z,100.00
2024-04-25T19:40:13.467Z,100.00
2024-04-25T19:42:46.879Z,100.00
2024-04-25T19:45:17.567Z,100.00
2024-04-25T19:47:45.880Z,100.00
2024-04-25T19:50:17.016Z,100.00
2024-04-25T19:52:48.472Z,100.00
2024-04-25T19:55:19.100Z,100.00
2024-04-25T19:57:54.134Z,100.00
2024-04-25T20:00:24.624Z,100.00
2024-04-25T20:02:55.080Z,100.00
2024-04-25T20:05:25.714Z,100.00
2024-04-25T20:07:56.320Z,100.00
2024-04-25T20:10:27.971Z,100.00
2024-04-25T20:13:01.492Z,100.00
2024-04-25T20:15:32.195Z,100.00
2024-04-25T20:18:18.081Z,100.00
2024-04-25T20:21:07.011Z,100.00
2024-04-25T20:23:40.779Z,100.00
2024-04-25T20:26:13.047Z,100.00
2024-04-25T20:28:46.491Z,100.00
2024-04-25T20:31:19.521Z,100.00
2024-04-25T20:33:50.707Z,100.00
2024-04-25T20:36:21.626Z,100.00
2024-04-25T20:38:52.530Z,100.00
2024-04-25T20:41:25.035Z,100.00
2024-04-25T20:43:58.785Z,100.00
2024-04-25T20:46:26.713Z,100.00
2024-04-25T20:48:59.868Z,100.00
2024-04-25T20:51:32.091Z,100.00
2024-04-25T20:54:03.443Z,100.00
2024-04-25T20:56:34.235Z,100.00
2024-04-25T20:59:07.804Z,100.00
2024-04-25T21:01:41.142Z,100.00
2024-04-25T21:04:12.334Z,100.00
2024-04-25T21:06:45.651Z,100.00
2024-04-25T21:09:20.059Z,100.00
2024-04-25T21:11:52.190Z,100.00
2024-04-25T21:14:25.466Z,100.00
2024-04-25T21:16:56.468Z,100.00
2024-04-25T21:19:27.060Z,100.00
2024-04-25T21:21:58.378Z,100.00
2024-04-25T21:24:29.847Z,100.00
2024-04-25T21:27:00.517Z,100.00
2024-04-25T21:29:33.993Z,100.00
2024-04-25T21:32:04.645Z,100.00
2024-04-25T21:34:35.385Z,100.00
2024-04-25T21:37:05.851Z,100.00
2024-04-25T21:39:36.391Z,100.00
2024-04-25T21:42:06.971Z,100.00
2024-04-25T21:44:40.516Z,100.00
2024-04-25T21:47:11.092Z,100.00
2024-04-25T21:49:41.672Z,100.00
2024-04-25T21:52:12.160Z,100.00
2024-04-25T21:54:42.869Z,100.00
2024-04-25T21:57:18.829Z,100.00
2024-04-25T21:59:52.612Z,100.00
2024-04-25T22:02:23.913Z,100.00
2024-04-25T22:04:54.749Z,100.00
2024-04-25T22:07:25.409Z,100.00
2024-04-25T22:09:56.202Z,100.00
2024-04-25T22:12:27.531Z,100.00
2024-04-25T22:15:01.017Z,100.00
2024-04-25T22:17:31.894Z,100.00
2024-04-25T22:20:02.554Z,100.00
2024-04-25T22:22:32.992Z,100.00
2024-04-25T22:25:03.436Z,100.00
2024-04-25T22:27:33.975Z,100.00
2024-04-25T22:30:07.622Z,100.00
2024-04-25T22:32:38.429Z,100.00
2024-04-25T22:35:09.677Z,100.00
2024-04-25T22:37:40.235Z,100.00
2024-04-25T22:40:11.754Z,100.00
2024-04-25T22:42:42.376Z,100.00
2024-04-25T22:45:21.677Z,100.00
2024-04-25T22:47:55.548Z,100.00
2024-04-25T22:50:26.549Z,100.00
2024-04-25T22:52:57.212Z,100.00
2024-04-25T22:55:27.645Z,100.00
2024-04-25T22:57:58.618Z,100.00
2024-04-25T23:00:34.678Z,100.00
2024-04-25T23:03:05.221Z,100.00
2024-04-25T23:05:37.561Z,100.00
2024-04-25T23:08:08.620Z,100.00
2024-04-25T23:10:42.093Z,100.00
2024-04-25T23:13:12.564Z,100.00
2024-04-25T23:15:45.749Z,100.00
2024-04-25T23:18:16.547Z,100.00
2024-04-25T23:20:47.292Z,100.00
2024-04-25T23:23:17.786Z,100.00
2024-04-25T23:25:48.260Z,100.00
2024-04-25T23:28:18.816Z,100.00
2024-04-25T23:30:52.321Z,100.00
2024-04-25T23:33:22.841Z,100.00
2024-04-25T23:35:53.895Z,100.00
2024-04-25T23:38:24.524Z,100.00
2024-04-25T23:40:54.934Z,100.00
2024-04-25T23:43:25.465Z,100.00
2024-04-25T23:45:58.675Z,100.00
2024-04-25T23:48:29.138Z,100.00
2024-04-25T23:51:04.305Z,100.00
2024-04-25T23:53:35.121Z,100.00
2024-04-25T23:56:05.903Z,100.00
2024-04-25T23:58:36.395Z,100.00
